Terminal Aerodrome Forecast
Issued by NWS Jackson, KY

Home | Current Version | Previous Version | Text Only | Print | Product List | Glossary On
Versions: 1 2 3 4 5 6 7 8 9 10 11 12 13 14 15 16 17 18
000
FTUS43 KJKL 301720
TAFJKL
TAF
KJKL 301720Z 3018/0118 VRB03KT P6SM SCT070 BKN250
     FM301900 28009KT P6SM VCTS BKN050CB
     FM010100 VRB03KT 6SM BR SCT080 BKN250
      TEMPO 0106/0108 4SM BR
     FM010800 VRB01KT 1SM BR SCT005
     FM011400 VRB06KT P6SM SCT250=

USA.gov is the U.S. government's official web portal to all federal, state and local government web resources and services.